Time;durP1;ratioP1;P1;durP2;ratioP2;P2;SDS_P1;SDS_P2;PMS_P1;PMS_P2;Temp;Humidity;BMP_temperature;BMP_pressure;BME280_temperature;BME280_humidity;BME280_pressure;Samples;Min_cycle;Max_cycle;Signal;HPM_P1;HPM_P2
2022/06/08 00:00:18;;;;;;;15.40;9.30;;;;;;;15.42;87.57;99451.27;105364;1265;60852;-64
2022/06/08 00:03:28;;;;;;;15.40;9.70;;;;;;;15.40;87.39;99450.66;105476;1265;73319;-64
2022/06/08 00:06:17;;;;;;;15.00;10.00;;;;;;;15.38;88.12;99451.23;105176;1265;70197;-65
2022/06/08 00:09:04;;;;;;;14.70;9.30;;;;;;;15.36;88.14;99447.60;105357;1265;74426;-66
2022/06/08 00:11:51;;;;;;;13.90;9.40;;;;;;;15.35;88.61;99446.20;105339;1264;59684;-65
2022/06/08 00:14:39;;;;;;;15.50;9.80;;;;;;;15.32;88.80;99442.67;105204;1265;61881;-65
2022/06/08 00:17:26;;;;;;;14.60;10.10;;;;;;;15.31;88.79;99439.61;105168;1265;74738;-68
2022/06/08 00:20:14;;;;;;;14.50;9.80;;;;;;;15.29;88.60;99446.06;105171;1265;68839;-66
2022/06/08 00:23:00;;;;;;;14.80;9.30;;;;;;;15.28;88.57;99447.30;105344;1265;72646;-69
2022/06/08 00:25:47;;;;;;;14.10;8.80;;;;;;;15.25;88.52;99440.61;105408;1265;60267;-69
2022/06/08 00:28:34;;;;;;;13.00;8.70;;;;;;;15.25;88.41;99441.11;105120;1265;59729;-68
2022/06/08 00:31:22;;;;;;;13.90;8.50;;;;;;;15.25;88.74;99437.86;105388;1265;72686;-66
2022/06/08 00:34:09;;;;;;;15.40;9.20;;;;;;;15.24;88.91;99436.02;105257;1265;68563;-64
2022/06/08 00:36:57;;;;;;;13.80;8.60;;;;;;;15.24;89.04;99438.04;105219;1265;72887;-65
2022/06/08 00:39:43;;;;;;;14.70;8.70;;;;;;;15.22;89.18;99436.77;105356;1264;59678;-64
2022/06/08 00:42:30;;;;;;;14.50;9.20;;;;;;;15.21;88.84;99437.30;105226;1265;59530;-64
2022/06/08 00:45:23;;;;;;;13.70;8.40;;;;;;;15.19;88.94;99433.50;105144;1265;74864;-63
2022/06/08 00:48:09;;;;;;;13.20;8.30;;;;;;;15.18;88.41;99438.69;105111;1265;67121;-65
2022/06/08 00:50:57;;;;;;;13.10;8.10;;;;;;;15.15;88.38;99440.90;105438;1265;74485;-64
2022/06/08 00:54:03;;;;;;;13.00;8.40;;;;;;;15.13;88.47;99440.09;105308;1265;60286;-64
2022/06/08 00:57:00;;;;;;;13.20;7.80;;;;;;;15.11;88.03;99438.83;105359;1265;62277;-65
2022/06/08 00:59:57;;;;;;;12.80;7.50;;;;;;;15.11;87.97;99433.65;105342;1265;74889;-63
2022/06/08 01:02:44;;;;;;;11.20;7.20;;;;;;;15.11;87.98;99429.88;105294;1265;68162;-64
2022/06/08 01:05:46;;;;;;;13.10;8.00;;;;;;;15.11;87.97;99431.67;105201;1265;73218;-65
2022/06/08 01:08:53;;;;;;;12.50;7.80;;;;;;;15.09;87.80;99429.93;105454;1265;60121;-66
2022/06/08 01:11:44;;;;;;;11.70;7.50;;;;;;;15.08;88.27;99428.48;105161;1265;62180;-64
2022/06/08 01:14:35;;;;;;;11.50;7.60;;;;;;;15.05;88.47;99425.36;105334;1265;71839;-64
2022/06/08 01:17:22;;;;;;;13.80;8.40;;;;;;;15.02;88.64;99422.34;105138;1265;68958;-68
2022/06/08 01:20:14;;;;;;;12.80;8.10;;;;;;;14.98;89.11;99421.07;105299;1265;74381;-64
2022/06/08 01:23:02;;;;;;;14.40;7.80;;;;;;;14.96;89.61;99424.14;104946;1265;61637;-65
2022/06/08 01:26:24;;;;;;;13.40;8.60;;;;;;;14.96;89.86;99420.79;105153;1265;60227;-64
2022/06/08 01:30:08;;;;;;;12.70;8.60;;;;;;;14.93;89.96;99416.23;105036;1271;73729;-63
2022/06/08 01:33:20;;;;;;;14.10;9.50;;;;;;;14.90;90.61;99412.52;104917;1271;69433;-66
2022/06/08 01:36:45;;;;;;;14.70;8.70;;;;;;;14.89;90.88;99412.45;105176;1271;73420;-64
2022/06/08 01:40:02;;;;;;;13.40;8.50;;;;;;;14.89;91.18;99412.77;105067;1271;59843;-63
2022/06/08 01:43:11;;;;;;;13.90;9.30;;;;;;;14.88;91.57;99411.29;104914;1271;62279;-64
2022/06/08 01:46:28;;;;;;;14.80;8.90;;;;;;;14.88;92.04;99405.89;104939;1271;73041;-66
2022/06/08 01:49:48;;;;;;;15.40;9.20;;;;;;;14.88;92.53;99407.38;104774;1271;68005;-66
2022/06/08 01:52:57;;;;;;;17.10;10.20;;;;;;;14.89;92.77;99412.09;104799;1271;72411;-65
2022/06/08 01:55:57;;;;;;;14.70;10.30;;;;;;;14.89;93.37;99410.15;104851;1273;59624;-66
2022/06/08 01:58:57;;;;;;;14.30;9.50;;;;;;;14.89;93.49;99405.13;105064;1272;59713;-66
2022/06/08 02:02:05;;;;;;;13.90;9.90;;;;;;;14.90;93.36;99406.77;104939;1271;72719;-65
2022/06/08 02:05:38;;;;;;;17.60;10.80;;;;;;;14.91;93.53;99403.13;105106;1271;69903;-64
2022/06/08 02:09:11;;;;;;;14.70;9.00;;;;;;;14.93;93.83;99403.47;105005;1268;74474;-65
2022/06/08 02:12:08;;;;;;;17.70;10.70;;;;;;;14.96;94.19;99410.98;105236;1268;59732;-68
2022/06/08 02:15:37;;;;;;;15.40;10.80;;;;;;;14.97;94.01;99409.80;105005;1269;60471;-67
2022/06/08 02:18:39;;;;;;;13.90;9.20;;;;;;;14.98;93.93;99404.29;105084;1268;73739;-66
2022/06/08 02:21:42;;;;;;;17.80;10.80;;;;;;;15.00;94.27;99401.29;105116;1271;69579;-65
2022/06/08 02:24:37;;;;;;;15.50;10.70;;;;;;;15.01;94.53;99397.92;105088;1269;72230;-65
2022/06/08 02:27:44;;;;;;;15.30;10.10;;;;;;;15.02;94.40;99396.05;105051;1268;61549;-65
2022/06/08 02:30:46;;;;;;;15.70;9.30;;;;;;;15.04;94.43;99393.75;105046;1268;61832;-65
2022/06/08 02:36:51;;;;;;;15.60;10.50;;;;;;;15.04;94.57;99383.50;105057;1268;68939;-64
2022/06/08 02:39:51;;;;;;;17.30;10.00;;;;;;;15.05;94.46;99386.44;105328;1265;73505;-64
2022/06/08 02:43:20;;;;;;;14.70;10.20;;;;;;;15.06;94.40;99389.36;105177;1265;60059;-67
2022/06/08 02:46:26;;;;;;;14.00;9.00;;;;;;;15.05;94.61;99390.73;105199;1265;60992;-66
2022/06/08 02:49:14;;;;;;;16.10;10.10;;;;;;;15.05;94.14;99389.83;105184;1265;73826;-69
2022/06/08 02:52:11;;;;;;;16.20;10.70;;;;;;;15.04;94.27;99385.48;105373;1265;68502;-66
2022/06/08 02:55:01;;;;;;;16.10;9.60;;;;;;;15.04;94.12;99385.48;105357;1265;73236;-65
2022/06/08 02:58:06;;;;;;;15.80;11.00;;;;;;;15.06;94.10;99390.30;105335;1265;60446;-67
2022/06/08 03:01:00;;;;;;;16.10;9.90;;;;;;;15.08;93.89;99387.73;105487;1265;62036;-68
2022/06/08 03:03:56;;;;;;;17.90;10.40;;;;;;;15.09;94.23;99389.23;105371;1265;72458;-65
2022/06/08 03:06:54;;;;;;;17.30;11.00;;;;;;;15.08;94.83;99387.88;105099;1265;69614;-69
2022/06/08 03:09:45;;;;;;;15.70;11.10;;;;;;;15.07;94.74;99385.02;105448;1265;71159;-69
2022/06/08 03:12:47;;;;;;;16.10;10.60;;;;;;;15.05;94.81;99385.04;105320;1265;59779;-67
2022/06/08 03:15:37;;;;;;;18.90;10.40;;;;;;;15.03;94.48;99386.54;105502;1265;59679;-69
2022/06/08 03:18:25;;;;;;;15.20;10.40;;;;;;;15.01;94.73;99386.00;105359;1265;74029;-70
2022/06/08 03:21:11;;;;;;;17.40;10.90;;;;;;;15.02;94.56;99385.77;105200;1265;69947;-67
2022/06/08 03:23:59;;;;;;;15.70;10.70;;;;;;;15.02;94.79;99389.69;105259;1265;74885;-68
2022/06/08 03:26:57;;;;;;;14.80;10.40;;;;;;;15.03;94.46;99391.34;105182;1265;59672;-69
2022/06/08 03:29:45;;;;;;;16.00;10.30;;;;;;;15.04;94.51;99389.39;105171;1268;60997;-69
2022/06/08 03:32:32;;;;;;;15.80;10.50;;;;;;;15.06;94.15;99389.36;105217;1265;74751;-70
2022/06/08 03:35:19;;;;;;;15.20;10.40;;;;;;;15.09;94.06;99389.98;105119;1265;68517;-69
2022/06/08 03:38:08;;;;;;;15.70;10.00;;;;;;;15.10;94.16;99385.86;105323;1265;74461;-70
2022/06/08 03:40:55;;;;;;;15.80;10.40;;;;;;;15.12;93.92;99386.57;105197;1266;59655;-68
2022/06/08 03:43:42;;;;;;;14.40;9.80;;;;;;;15.15;93.95;99388.81;105318;1265;60959;-69
2022/06/08 03:46:34;;;;;;;15.20;10.50;;;;;;;15.16;93.88;99391.31;105223;1265;73563;-69
2022/06/08 03:49:25;;;;;;;15.00;9.80;;;;;;;15.19;93.94;99388.37;105165;1265;68195;-67
2022/06/08 03:52:19;;;;;;;15.50;9.40;;;;;;;15.21;93.57;99390.22;105176;1265;74445;-68
2022/06/08 03:55:08;;;;;;;14.60;9.80;;;;;;;15.26;93.39;99393.89;105154;1265;61057;-69
2022/06/08 03:57:57;;;;;;;14.00;9.50;;;;;;;15.35;92.97;99394.19;105474;1267;59703;-68
2022/06/08 04:00:45;;;;;;;15.10;9.20;;;;;;;15.46;92.59;99394.89;105203;1265;73591;-69
2022/06/08 04:03:34;;;;;;;14.70;9.00;;;;;;;15.60;91.86;99394.09;105171;1267;69626;-68
2022/06/08 04:06:22;;;;;;;14.60;9.00;;;;;;;15.73;91.03;99394.31;104972;1268;73348;-68
2022/06/08 04:09:09;;;;;;;13.70;9.30;;;;;;;15.84;90.35;99399.58;105304;1266;59658;-71
2022/06/08 04:11:57;;;;;;;13.30;8.70;;;;;;;15.95;89.74;99403.00;105013;1267;61077;-70
2022/06/08 04:14:44;;;;;;;15.60;9.50;;;;;;;16.01;88.87;99405.52;105132;1267;73633;-70
2022/06/08 04:17:34;;;;;;;14.00;8.60;;;;;;;16.08;88.77;99407.80;105217;1268;68554;-69
2022/06/08 04:20:21;;;;;;;13.50;8.60;;;;;;;16.19;88.14;99408.06;105367;1265;73730;-72
2022/06/08 04:23:09;;;;;;;13.30;8.80;;;;;;;16.30;87.23;99405.20;105143;1265;60328;-70
2022/06/08 04:25:57;;;;;;;13.50;8.10;;;;;;;16.43;86.97;99402.50;104969;1268;61995;-70
2022/06/08 04:28:45;;;;;;;13.30;8.20;;;;;;;16.58;86.21;99405.80;105051;1268;71590;-70
2022/06/08 04:31:38;;;;;;;11.30;8.00;;;;;;;16.78;84.95;99402.79;105290;1268;68847;-71
2022/06/08 04:34:40;;;;;;;13.50;8.00;;;;;;;17.02;83.77;99404.78;105465;1268;74208;-70
2022/06/08 04:37:28;;;;;;;14.70;8.00;;;;;;;17.22;82.74;99398.88;105184;1267;59673;-71
2022/06/08 04:40:16;;;;;;;13.10;8.10;;;;;;;17.40;82.01;99399.48;105113;1267;60745;-69
2022/06/08 04:43:05;;;;;;;11.20;7.80;;;;;;;17.67;80.41;99398.55;105337;1267;73420;-72
2022/06/08 04:45:52;;;;;;;13.60;8.00;;;;;;;18.06;78.81;99397.10;105233;1267;68569;-70
2022/06/08 04:48:40;;;;;;;12.10;7.00;;;;;;;18.56;77.89;99395.17;105007;1268;73522;-70
2022/06/08 04:51:28;;;;;;;11.20;7.40;;;;;;;19.08;75.18;99390.35;105143;1267;59819;-69
2022/06/08 04:54:16;;;;;;;9.80;6.50;;;;;;;19.55;72.99;99386.44;105272;1267;59971;-70
2022/06/08 04:57:04;;;;;;;10.70;6.40;;;;;;;19.83;69.84;99378.59;105063;1268;72596;-70
2022/06/08 04:59:52;;;;;;;9.80;6.10;;;;;;;20.21;69.03;99386.98;105406;1265;68480;-70
2022/06/08 05:02:47;;;;;;;9.00;6.10;;;;;;;20.43;67.12;99384.98;105126;1265;71604;-77
2022/06/08 05:05:41;;;;;;;9.60;6.20;;;;;;;20.73;66.47;99383.59;105445;1265;59790;-76
2022/06/08 05:08:34;;;;;;;10.40;7.10;;;;;;;21.10;64.08;99380.77;105543;1265;60819;-76
2022/06/08 05:11:22;;;;;;;10.20;6.50;;;;;;;21.22;63.91;99381.21;105394;1267;72325;-76
2022/06/08 05:14:09;;;;;;;10.30;6.30;;;;;;;21.49;62.86;99377.79;105579;1265;69612;-74
2022/06/08 05:16:56;;;;;;;8.50;5.40;;;;;;;22.02;61.80;99372.84;105355;1268;73433;-73
2022/06/08 05:19:44;;;;;;;10.20;5.80;;;;;;;22.46;58.99;99369.07;105442;1267;337445;-77
2022/06/08 05:22:31;;;;;;;10.50;6.60;;;;;;;22.93;57.74;99365.62;105155;1270;60125;-77
2022/06/08 05:25:27;;;;;;;11.80;5.60;;;;;;;23.61;56.09;99365.02;105146;1270;74757;-77
2022/06/08 05:28:16;;;;;;;9.70;5.80;;;;;;;24.54;53.90;99364.22;104941;1270;68757;-65
2022/06/08 05:31:09;;;;;;;9.40;5.50;;;;;;;25.68;50.51;99362.23;105169;1269;75081;-65
2022/06/08 05:34:03;;;;;;;9.50;4.80;;;;;;;26.84;47.69;99356.09;105434;1268;59966;-76
2022/06/08 05:36:50;;;;;;;7.40;4.20;;;;;;;27.78;43.48;99352.66;106368;1268;59669;-72
2022/06/08 05:39:44;;;;;;;7.60;4.50;;;;;;;28.34;42.23;99355.65;106323;1268;72490;-73
2022/06/08 05:42:32;;;;;;;9.90;5.30;;;;;;;29.01;41.07;99351.20;106920;1268;67465;-75
2022/06/08 05:45:27;;;;;;;7.70;4.50;;;;;;;29.94;39.15;99346.89;105725;1270;72042;-76
2022/06/08 05:48:14;;;;;;;8.50;4.10;;;;;;;30.85;37.30;99346.66;105115;1268;59644;-74
2022/06/08 05:51:01;;;;;;;11.10;4.30;;;;;;;31.50;36.19;99348.51;105117;1268;59847;-72
2022/06/08 05:53:48;;;;;;;8.60;3.80;;;;;;;31.98;35.24;99349.64;105483;1268;75070;-73
2022/06/08 05:56:37;;;;;;;10.90;4.10;;;;;;;32.37;34.40;99351.96;105160;1268;68537;-70
2022/06/08 05:59:24;;;;;;;8.40;3.70;;;;;;;32.70;33.18;99349.67;105037;1268;72607;-72
2022/06/08 06:02:14;;;;;;;8.40;3.60;;;;;;;32.98;32.13;99348.04;105615;1264;59931;-74
2022/06/08 06:05:03;;;;;;;10.10;3.70;;;;;;;33.34;31.49;99352.83;105446;1265;61071;-73
2022/06/08 06:07:50;;;;;;;8.80;3.80;;;;;;;33.78;30.42;99350.36;105358;1266;73717;-73
2022/06/08 06:10:47;;;;;;;8.30;3.50;;;;;;;34.33;29.68;99349.46;105173;1267;69658;-72
2022/06/08 06:13:37;;;;;;;8.40;3.20;;;;;;;34.68;28.58;99344.71;105201;1268;72736;-72
2022/06/08 06:16:30;;;;;;;6.80;3.10;;;;;;;35.01;28.19;99342.94;105451;1267;59743;-73
2022/06/08 06:19:17;;;;;;;8.80;3.50;;;;;;;34.48;28.56;99347.23;105107;1268;61629;-73
2022/06/08 06:22:27;;;;;;;11.10;3.80;;;;;;;33.57;29.96;99344.90;105433;1267;74901;-73
2022/06/08 06:25:34;;;;;;;8.70;3.80;;;;;;;32.15;31.30;99347.79;105320;1268;68488;-72
2022/06/08 06:28:46;;;;;;;7.50;3.50;;;;;;;31.06;32.70;99346.86;105323;1266;72527;-74
2022/06/08 06:32:25;;;;;;;7.70;4.00;;;;;;;31.47;33.16;99348.40;105258;1267;59636;-73
2022/06/08 06:35:21;;;;;;;9.00;4.10;;;;;;;32.25;32.17;99345.83;105301;1268;60989;-71
2022/06/08 06:38:10;;;;;;;9.80;4.40;;;;;;;32.96;31.42;99350.86;105488;1265;73816;-73
2022/06/08 06:40:57;;;;;;;7.80;3.90;;;;;;;32.13;32.15;99345.46;105149;1265;69624;-73
2022/06/08 06:43:45;;;;;;;8.10;3.50;;;;;;;31.22;33.17;99344.54;105119;1268;73151;-74
2022/06/08 06:46:43;;;;;;;8.00;3.90;;;;;;;30.23;34.48;99345.02;105407;1268;59700;-72
2022/06/08 06:49:43;;;;;;;9.20;4.30;;;;;;;29.33;35.76;99351.52;105428;1265;59675;-74
2022/06/08 06:52:32;;;;;;;8.10;4.00;;;;;;;28.57;37.12;99346.80;105420;1265;73053;-72
2022/06/08 06:55:30;;;;;;;8.60;4.50;;;;;;;28.38;37.73;99337.59;105276;1265;68119;-74
2022/06/08 06:58:37;;;;;;;9.50;4.40;;;;;;;28.61;37.52;99339.91;105135;1265;73229;-72
2022/06/08 07:01:25;;;;;;;8.10;3.70;;;;;;;28.73;37.53;99336.52;105521;1265;59698;-74
2022/06/08 07:04:11;;;;;;;8.70;4.30;;;;;;;28.46;38.03;99333.16;105245;1265;59630;-75
2022/06/08 07:07:06;;;;;;;8.40;3.80;;;;;;;28.04;38.10;99330.29;105135;1268;71826;-74
2022/06/08 07:09:53;;;;;;;9.50;4.00;;;;;;;27.34;39.21;99339.75;105145;1268;66809;-74
2022/06/08 07:12:40;;;;;;;12.10;4.20;;;;;;;26.51;40.25;99340.13;105179;1265;74285;-74
2022/06/08 07:15:27;;;;;;;8.70;4.00;;;;;;;26.02;41.75;99338.89;105574;1265;59644;-74
2022/06/08 07:18:15;;;;;;;9.20;4.30;;;;;;;25.80;42.41;99339.14;105459;1268;59717;-75
2022/06/08 07:21:03;;;;;;;11.50;4.40;;;;;;;25.63;42.78;99339.18;105277;1265;72953;-72
2022/06/08 07:23:51;;;;;;;10.00;4.90;;;;;;;25.60;42.93;99336.98;105471;1267;68354;-75
2022/06/08 07:26:38;;;;;;;15.80;10.70;;;;;;;25.52;43.46;99337.00;105289;1265;73342;-74
2022/06/08 07:29:25;;;;;;;8.80;4.40;;;;;;;25.60;43.62;99337.81;105511;1265;59639;-73
2022/06/08 07:32:12;;;;;;;9.50;4.80;;;;;;;25.63;44.24;99332.91;105596;1268;60650;-75
2022/06/08 07:34:58;;;;;;;9.90;4.80;;;;;;;25.74;43.58;99337.59;105410;1266;72933;-75
2022/06/08 07:37:45;;;;;;;8.60;3.90;;;;;;;26.28;43.26;99335.91;105732;1265;66835;-75
2022/06/08 07:40:32;;;;;;;17.30;5.90;;;;;;;26.99;42.89;99334.00;105596;1268;72776;-74
2022/06/08 07:43:20;;;;;;;15.20;8.00;;;;;;;27.52;42.97;99332.19;105494;1265;59796;-76
2022/06/08 07:46:08;;;;;;;12.30;5.60;;;;;;;28.39;41.04;99327.16;105350;1268;60388;-76
2022/06/08 07:52:00;;;;;;;14.00;6.70;;;;;;;28.68;40.62;99325.55;105950;1268;66756;-75
2022/06/08 07:54:48;;;;;;;12.50;6.10;;;;;;;28.48;41.09;99325.25;106343;1268;71962;-75
2022/06/08 07:57:35;;;;;;;14.40;6.10;;;;;;;28.32;40.87;99321.05;107298;1265;59576;-74
2022/06/08 08:00:22;;;;;;;12.80;6.30;;;;;;;28.32;40.77;99325.54;108616;1265;59181;-77
2022/06/08 08:03:10;;;;;;;14.80;5.90;;;;;;;28.42;40.48;99328.13;108280;1265;73627;-74
2022/06/08 08:05:58;;;;;;;11.70;6.10;;;;;;;28.90;39.59;99325.95;107651;1265;66790;-74
2022/06/08 08:08:45;;;;;;;10.80;5.00;;;;;;;29.14;38.84;99324.75;108385;1265;71505;-74
2022/06/08 08:11:32;;;;;;;10.50;6.10;;;;;;;28.99;39.01;99325.20;106177;1267;59750;-74
2022/06/08 08:14:23;;;;;;;10.10;5.30;;;;;;;28.51;39.62;99332.51;105675;1265;59665;-75
2022/06/08 08:17:10;;;;;;;12.30;7.70;;;;;;;28.10;40.44;99335.30;105540;1267;72191;-75
2022/06/08 08:19:59;;;;;;;11.70;5.60;;;;;;;27.73;41.41;99336.45;105508;1265;66612;-74
2022/06/08 08:22:46;;;;;;;12.90;5.70;;;;;;;27.60;41.65;99339.65;105372;1268;72889;-76
2022/06/08 08:25:35;;;;;;;12.40;6.70;;;;;;;27.56;41.81;99341.34;105191;1268;59711;-74
2022/06/08 08:28:22;;;;;;;10.40;5.70;;;;;;;27.56;41.99;99338.83;105431;1268;60359;-76
2022/06/08 08:31:09;;;;;;;12.10;5.90;;;;;;;27.91;41.93;99336.67;105162;1268;73205;-74
2022/06/08 08:33:56;;;;;;;13.80;6.30;;;;;;;28.09;41.44;99333.95;105360;1268;66849;-73
2022/06/08 08:36:42;;;;;;;11.10;5.90;;;;;;;28.32;41.00;99335.23;105300;1265;71460;-75
2022/06/08 08:39:29;;;;;;;14.90;7.60;;;;;;;28.75;39.37;99342.05;105521;1265;59522;-75
2022/06/08 08:42:21;;;;;;;19.30;6.20;;;;;;;29.19;39.25;99338.18;105689;1265;61120;-75
2022/06/08 08:45:14;;;;;;;12.80;7.10;;;;;;;29.72;37.91;99327.55;105378;1268;73086;-75
2022/06/08 08:48:09;;;;;;;13.70;6.70;;;;;;;29.79;37.87;99327.48;105463;1268;67937;-76
2022/06/08 08:51:06;;;;;;;14.80;7.10;;;;;;;29.36;37.91;99329.67;105489;1265;73289;-76
2022/06/08 08:54:35;;;;;;;14.30;6.60;;;;;;;28.84;38.76;99334.04;105338;1265;59762;-76
2022/06/08 08:57:43;;;;;;;18.50;8.40;;;;;;;28.36;39.58;99331.77;105511;1265;60075;-75
2022/06/08 09:00:39;;;;;;;14.10;6.70;;;;;;;27.91;40.62;99335.19;105526;1268;73222;-76
2022/06/08 09:03:39;;;;;;;14.30;7.60;;;;;;;27.73;40.99;99329.34;105087;1265;67250;-75
2022/06/08 09:06:31;;;;;;;11.50;6.20;;;;;;;27.63;41.72;99329.21;105085;1265;73487;-76
2022/06/08 09:09:32;;;;;;;18.30;7.90;;;;;;;27.48;42.05;99327.23;105632;1265;59650;-75
2022/06/08 09:12:19;;;;;;;18.40;9.10;;;;;;;27.74;41.88;99325.71;105223;1265;60416;-76
2022/06/08 09:15:16;;;;;;;20.00;8.50;;;;;;;27.74;41.67;99321.94;105248;1265;72572;-75
2022/06/08 09:18:05;;;;;;;21.80;7.50;;;;;;;27.94;41.38;99318.63;105358;1265;68554;-76
2022/06/08 09:20:52;;;;;;;15.00;7.90;;;;;;;28.49;40.29;99320.43;105500;1265;74255;-72
2022/06/08 09:23:42;;;;;;;18.90;7.50;;;;;;;28.77;39.66;99319.80;105157;1265;59637;-70
2022/06/08 09:26:36;;;;;;;18.70;7.80;;;;;;;28.42;39.55;99322.88;105489;1265;61551;-73
2022/06/08 09:29:29;;;;;;;16.00;8.80;;;;;;;27.97;40.16;99318.81;105453;1264;73699;-71
2022/06/08 09:32:26;;;;;;;16.30;11.10;;;;;;;28.04;40.07;99311.48;105105;1268;68475;-72
2022/06/08 09:35:34;;;;;;;13.40;7.20;;;;;;;28.63;39.09;99308.52;105336;1265;73558;-73
2022/06/08 09:38:25;;;;;;;11.80;6.60;;;;;;;29.42;38.04;99303.80;105419;1265;59681;-73
2022/06/08 09:41:34;;;;;;;12.10;7.10;;;;;;;29.94;36.60;99303.02;105287;1265;62082;-72
2022/06/08 09:44:39;;;;;;;13.50;6.80;;;;;;;29.15;37.45;99309.69;105159;1267;72681;-74
2022/06/08 09:52:15;;;;;;;11.30;6.80;;;;;;;27.58;40.20;99307.17;105650;1265;71573;-74
2022/06/08 09:55:26;;;;;;;9.50;5.90;;;;;;;28.05;40.49;99310.84;105346;1265;59653;-73
2022/06/08 09:58:35;;;;;;;13.50;6.20;;;;;;;29.34;38.46;99305.04;105237;1265;60586;-73
2022/06/08 10:01:45;;;;;;;11.00;5.50;;;;;;;30.38;36.57;99292.59;105457;1265;72562;-73
2022/06/08 10:04:41;;;;;;;12.70;7.80;;;;;;;31.04;35.21;99290.89;105189;1265;69544;-75
2022/06/08 10:07:33;;;;;;;11.90;5.00;;;;;;;31.71;33.39;99288.63;105330;1265;72036;-74
2022/06/08 10:10:42;;;;;;;11.80;5.40;;;;;;;32.03;33.14;99286.08;105593;1265;59637;-72
2022/06/08 10:13:46;;;;;;;11.70;5.70;;;;;;;31.75;32.92;99288.67;105942;1265;60917;-75
2022/06/08 10:16:38;;;;;;;10.30;5.50;;;;;;;30.83;34.21;99288.17;105085;1270;74792;-75
2022/06/08 10:19:36;;;;;;;10.70;5.10;;;;;;;30.10;35.59;99288.94;104997;1270;67925;-74
2022/06/08 10:22:30;;;;;;;12.20;6.30;;;;;;;29.79;36.90;99289.88;104968;1271;72154;-71
2022/06/08 10:25:26;;;;;;;9.90;5.50;;;;;;;29.56;37.24;99291.46;104871;1270;59582;-76
2022/06/08 10:29:05;;;;;;;9.70;5.40;;;;;;;29.21;37.89;99302.04;104799;1271;61858;-74
2022/06/08 10:32:30;;;;;;;10.70;6.10;;;;;;;28.74;38.80;99299.95;105003;1276;74429;-76
2022/06/08 10:35:41;;;;;;;9.90;6.10;;;;;;;29.11;38.40;99298.02;104492;1278;65860;-74
2022/06/08 10:38:33;;;;;;;10.50;6.00;;;;;;;29.07;38.06;99294.17;104432;1276;74555;-75
2022/06/08 10:44:43;;;;;;;10.90;6.80;;;;;;;28.04;39.94;99297.00;104790;1276;59758;-72
2022/06/08 10:47:38;;;;;;;11.30;6.90;;;;;;;27.62;41.15;99292.02;104626;1273;74604;-73
2022/06/08 10:50:35;;;;;;;11.20;6.40;;;;;;;27.38;42.05;99290.14;104872;1273;69632;-73
2022/06/08 10:56:42;;;;;;;10.60;6.30;;;;;;;26.85;43.90;99290.30;104654;1274;59763;-72
2022/06/08 10:59:30;;;;;;;11.30;7.40;;;;;;;26.48;44.64;99292.25;104668;1273;61217;-73
2022/06/08 11:02:33;;;;;;;11.80;7.00;;;;;;;26.21;45.70;99295.25;104598;1273;73840;-73
2022/06/08 11:05:35;;;;;;;12.20;6.70;;;;;;;26.18;46.66;99285.91;104570;1273;68714;-74
2022/06/08 11:08:51;;;;;;;11.60;6.70;;;;;;;27.02;45.37;99283.71;105338;1265;73183;-73
2022/06/08 11:11:44;;;;;;;13.60;7.20;;;;;;;27.10;44.62;99277.19;105602;1268;59669;-74
2022/06/08 11:14:57;;;;;;;19.00;7.50;;;;;;;26.88;44.82;99276.20;105216;1268;62316;-72
2022/06/08 11:17:58;;;;;;;15.60;7.10;;;;;;;26.92;44.89;99271.98;105228;1265;74658;-72
2022/06/08 11:21:15;;;;;;;19.80;8.30;;;;;;;27.04;45.08;99275.88;105090;1265;67507;-76
2022/06/08 11:24:04;;;;;;;14.10;7.50;;;;;;;26.83;45.55;99280.05;105522;1268;73256;-71
2022/06/08 11:27:21;;;;;;;11.20;7.20;;;;;;;26.57;46.01;99280.10;105162;1268;59987;-72
2022/06/08 11:30:14;;;;;;;13.10;7.80;;;;;;;26.32;46.85;99267.22;105361;1265;61748;-72
2022/06/08 11:33:20;;;;;;;11.40;7.30;;;;;;;26.18;47.01;99273.13;105293;1267;72508;-72
2022/06/08 11:36:40;;;;;;;12.50;7.10;;;;;;;26.20;47.13;99276.80;105254;1268;68732;-76
2022/06/08 11:39:40;;;;;;;13.90;6.60;;;;;;;26.23;47.66;99271.90;105428;1268;73527;-74
2022/06/08 11:42:28;;;;;;;10.80;6.40;;;;;;;26.32;47.72;99269.52;105545;1265;59508;-73
2022/06/08 11:45:24;;;;;;;15.80;7.20;;;;;;;26.26;47.59;99266.00;105540;1265;59652;-75
2022/06/08 11:48:17;;;;;;;13.30;6.60;;;;;;;26.17;47.23;99267.70;105304;1265;73795;-75
2022/06/08 11:51:07;;;;;;;13.00;7.50;;;;;;;26.25;47.38;99265.94;105402;1265;68103;-76
2022/06/08 11:53:55;;;;;;;11.60;5.90;;;;;;;26.38;46.94;99266.85;105283;1268;72123;-74
2022/06/08 11:57:17;;;;;;;10.70;5.40;;;;;;;26.35;46.48;99271.16;105357;1268;59631;-77
2022/06/08 12:00:20;;;;;;;12.70;5.90;;;;;;;26.30;46.72;99271.94;105297;1265;60978;-75
2022/06/08 12:03:16;;;;;;;12.10;6.10;;;;;;;26.25;46.80;99266.27;104929;1271;73862;-74
2022/06/08 12:06:28;;;;;;;11.30;5.60;;;;;;;26.19;46.72;99266.31;105056;1270;67164;-76
2022/06/08 12:09:26;;;;;;;9.80;4.90;;;;;;;26.24;47.24;99262.09;104758;1271;76781;-73
2022/06/08 12:12:26;;;;;;;9.80;5.50;;;;;;;26.30;47.52;99265.29;104980;1271;59731;-75
2022/06/08 12:15:45;;;;;;;11.10;5.50;;;;;;;26.31;48.24;99258.48;105226;1270;61366;-75
2022/06/08 12:18:36;;;;;;;8.60;5.10;;;;;;;26.33;48.35;99262.67;105055;1270;73264;-74
2022/06/08 12:21:33;;;;;;;10.90;5.50;;;;;;;26.26;48.17;99265.58;105125;1271;68562;-74
2022/06/08 12:24:24;;;;;;;10.60;5.60;;;;;;;26.21;48.67;99265.73;105705;1270;73327;-73
2022/06/08 12:27:22;;;;;;;11.70;5.90;;;;;;;26.30;48.21;99262.89;104861;1270;59768;-74
2022/06/08 12:30:47;;;;;;;10.60;5.60;;;;;;;26.37;47.94;99255.05;104814;1271;60611;-72
2022/06/08 12:33:34;;;;;;;9.50;5.40;;;;;;;26.40;48.28;99248.08;104824;1265;74580;-71
2022/06/08 12:36:31;;;;;;;9.70;5.40;;;;;;;26.36;47.78;99242.22;105381;1265;67683;-73
2022/06/08 12:39:24;;;;;;;12.90;5.20;;;;;;;26.19;46.93;99245.80;105155;1265;72427;-71
2022/06/08 12:42:33;;;;;;;10.00;4.80;;;;;;;26.05;47.54;99249.14;105397;1268;59649;-74
2022/06/08 12:45:33;;;;;;;11.10;4.60;;;;;;;25.98;47.57;99243.77;105626;1265;60210;-71
2022/06/08 12:48:38;;;;;;;14.60;4.60;;;;;;;25.81;46.67;99238.84;105340;1265;74632;-72
2022/06/08 12:51:52;;;;;;;11.90;4.80;;;;;;;25.63;47.19;99242.77;105169;1266;68683;-72
2022/06/08 12:54:40;;;;;;;11.00;4.80;;;;;;;25.56;47.93;99239.16;105344;1265;73640;-75
2022/06/08 12:57:31;;;;;;;9.40;5.10;;;;;;;25.58;48.66;99241.64;105354;1265;59685;-70
2022/06/08 13:00:26;;;;;;;10.10;4.90;;;;;;;25.54;48.81;99237.36;105299;1265;60611;-74
2022/06/08 13:03:27;;;;;;;12.80;5.20;;;;;;;25.58;49.17;99233.71;105220;1265;73885;-71
2022/06/08 13:06:17;;;;;;;9.90;4.40;;;;;;;25.85;48.11;99226.00;105291;1265;69585;-72
2022/06/08 13:09:04;;;;;;;10.50;4.60;;;;;;;26.10;46.39;99221.48;105269;1265;73470;-72
2022/06/08 13:11:58;;;;;;;8.70;3.90;;;;;;;26.12;45.12;99223.98;105324;1265;62156;-72
2022/06/08 13:14:47;;;;;;;6.50;2.50;;;;;;;26.14;41.82;99222.11;105110;1265;60326;-71
2022/06/08 13:17:33;;;;;;;7.00;2.60;;;;;;;26.12;38.52;99214.65;105304;1265;72370;-72
2022/06/08 13:20:33;;;;;;;8.20;2.40;;;;;;;26.19;37.80;99212.16;105332;1265;69641;-72
2022/06/08 13:23:21;;;;;;;6.60;2.80;;;;;;;26.27;37.14;99211.44;105381;1265;70937;-72
2022/06/08 13:26:23;;;;;;;7.30;2.60;;;;;;;26.09;37.13;99209.42;105406;1265;59649;-72
2022/06/08 13:29:12;;;;;;;7.50;2.50;;;;;;;26.12;37.10;99204.17;105560;1265;62064;-74
2022/06/08 13:31:59;;;;;;;8.30;2.10;;;;;;;26.06;36.76;99204.97;105233;1266;72515;-75
2022/06/08 13:34:49;;;;;;;5.90;1.90;;;;;;;26.32;36.17;99203.78;105385;1265;68587;-75
2022/06/08 13:37:44;;;;;;;7.50;2.70;;;;;;;26.44;35.10;99206.26;105364;1265;71428;-71
2022/06/08 13:40:31;;;;;;;7.10;3.60;;;;;;;26.49;40.50;99212.14;105139;1265;59744;-73
2022/06/08 13:43:18;;;;;;;9.30;4.80;;;;;;;26.48;44.15;99209.61;105280;1265;60494;-75
2022/06/08 13:46:13;;;;;;;9.30;4.20;;;;;;;26.47;44.64;99201.51;105247;1265;73564;-72